Time;durP1;ratioP1;P1;durP2;ratioP2;P2;SDS_P1;SDS_P2;PMS_P1;PMS_P2;Temp;Humidity;BMP_temperature;BMP_pressure;BME280_temperature;BME280_humidity;BME280_pressure;Samples;Min_cycle;Max_cycle;Signal;HPM_P1;HPM_P2
2021/12/20 00:01:25;;;;;;;6.40;4.80;;;;;;;2.13;76.78;97718.19;6100987;29;20231;-89
2021/12/20 00:04:27;;;;;;;7.27;4.90;;;;;;;2.12;76.43;97705.22;6093894;28;20236;-88
2021/12/20 00:07:29;;;;;;;5.37;4.30;;;;;;;2.12;76.59;97694.81;6115214;28;20267;-88
2021/12/20 00:10:31;;;;;;;5.53;4.37;;;;;;;2.12;76.92;97693.06;6099452;28;20618;-88
2021/12/20 00:13:33;;;;;;;6.60;4.73;;;;;;;2.21;76.03;97683.97;6091268;28;20230;-88
2021/12/20 00:16:35;;;;;;;7.20;5.00;;;;;;;2.19;76.08;97685.81;6106930;28;20264;-89
2021/12/20 00:19:37;;;;;;;7.63;5.43;;;;;;;2.17;76.14;97685.03;6107722;28;20231;-89
2021/12/20 00:22:40;;;;;;;7.10;5.30;;;;;;;2.17;76.12;97685.03;6106922;28;20727;-89
2021/12/20 00:25:48;;;;;;;6.57;5.07;;;;;;;2.13;76.12;97667.88;6108361;28;20241;-89
2021/12/20 00:28:50;;;;;;;6.97;4.80;;;;;;;2.13;76.19;97696.50;6106733;28;20322;-89
2021/12/20 00:31:52;;;;;;;5.47;4.80;;;;;;;2.13;76.29;97681.72;6106955;28;20238;-88
2021/12/20 00:34:54;;;;;;;6.10;5.20;;;;;;;2.13;76.03;97678.28;6095706;29;20267;-88
2021/12/20 00:41:16;;;;;;;7.57;4.97;;;;;;;2.14;76.61;97695.59;6106965;28;20606;-89
2021/12/20 00:44:18;;;;;;;5.30;4.17;;;;;;;2.15;76.57;97710.31;6106864;28;20238;-88
2021/12/20 00:47:28;;;;;;;5.77;4.37;;;;;;;2.14;76.10;97693.84;6087350;29;20227;-88
2021/12/20 00:50:31;;;;;;;5.77;4.60;;;;;;;2.18;75.97;97694.56;6106841;28;20231;-88
2021/12/20 00:53:33;;;;;;;4.77;3.90;;;;;;;2.18;76.22;97710.16;6107347;28;20715;-88
2021/12/20 00:56:35;;;;;;;6.07;4.60;;;;;;;2.18;76.55;97702.34;6107211;28;20281;-89
2021/12/20 00:59:37;;;;;;;5.53;4.43;;;;;;;2.17;76.27;97711.09;6106523;28;20613;-89
2021/12/20 01:02:39;;;;;;;5.67;4.40;;;;;;;2.17;76.60;97711.09;6106744;28;20434;-88
2021/12/20 01:05:42;;;;;;;7.27;5.33;;;;;;;2.16;77.08;97706.78;6103485;28;20232;-89
2021/12/20 01:08:45;;;;;;;8.43;5.40;;;;;;;2.13;77.40;97693.91;6111234;28;20313;-88
2021/12/20 01:11:51;;;;;;;7.30;5.00;;;;;;;2.14;77.68;97708.59;6097805;29;20219;-88
2021/12/20 01:14:58;;;;;;;7.33;5.17;;;;;;;2.14;77.62;97698.19;6110372;28;20236;-88
2021/12/20 01:18:06;;;;;;;5.87;4.53;;;;;;;2.12;77.58;97710.44;6111032;28;20603;-89
2021/12/20 01:21:09;;;;;;;7.33;5.00;;;;;;;2.13;77.58;97696.50;6110687;28;20246;-88
2021/12/20 01:24:11;;;;;;;7.03;5.17;;;;;;;2.12;77.96;97700.88;6095576;28;20258;-88
2021/12/20 01:27:13;;;;;;;6.57;5.03;;;;;;;2.11;78.06;97720.00;6110737;28;20597;-87
2021/12/20 01:30:17;;;;;;;6.57;5.10;;;;;;;2.08;77.92;97712.34;6097169;29;20269;-89
2021/12/20 01:33:20;;;;;;;7.93;5.30;;;;;;;2.10;77.59;97699.25;6114319;28;20303;-89
2021/12/20 01:36:22;;;;;;;6.63;4.63;;;;;;;2.09;77.84;97716.66;6096535;28;20326;-89
2021/12/20 01:39:24;;;;;;;7.23;4.93;;;;;;;2.09;77.92;97713.19;6105738;29;20231;-89
2021/12/20 01:42:30;;;;;;;6.50;4.73;;;;;;;2.07;78.13;97722.81;6087576;29;20247;-88
2021/12/20 01:45:33;;;;;;;6.87;5.00;;;;;;;2.05;77.75;97735.91;6103588;29;20228;-88
2021/12/20 01:48:36;;;;;;;7.60;4.97;;;;;;;2.10;78.20;97717.47;6094877;28;20230;-91
2021/12/20 01:52:01;;;;;;;6.87;4.80;;;;;;;2.10;78.36;97728.72;6095010;29;20260;-89
2021/12/20 01:55:03;;;;;;;6.30;4.73;;;;;;;2.08;79.65;97742.75;6102571;28;20295;-89
2021/12/20 01:58:06;;;;;;;6.23;4.73;;;;;;;2.08;78.65;97750.56;6110598;28;20391;-89
2021/12/20 02:04:10;;;;;;;7.67;5.17;;;;;;;2.01;79.96;97762.13;6096435;28;20718;-89
2021/12/20 02:07:31;;;;;;;5.87;4.50;;;;;;;2.00;80.30;97766.50;6110743;28;20233;-88
2021/12/20 02:10:34;;;;;;;6.97;5.30;;;;;;;1.86;80.14;97779.28;6086002;29;20696;-89
2021/12/20 02:13:38;;;;;;;7.13;5.57;;;;;;;1.73;81.22;97776.38;6073362;28;20577;-90
2021/12/20 02:16:43;;;;;;;7.83;6.00;;;;;;;1.62;81.21;97773.38;6110189;28;20319;-89
2021/12/20 02:19:45;;;;;;;5.80;4.93;;;;;;;1.46;81.88;97783.59;6111081;28;20243;-89
2021/12/20 02:22:47;;;;;;;6.67;4.77;;;;;;;1.35;82.40;97779.75;6091333;29;20245;-89
2021/12/20 02:25:49;;;;;;;6.07;4.80;;;;;;;1.18;83.01;97788.28;6119784;28;20242;-89
2021/12/20 02:28:55;;;;;;;5.90;4.60;;;;;;;1.07;83.20;97793.06;6109714;28;20254;-90
2021/12/20 02:38:41;;;;;;;5.20;4.00;;;;;;;0.89;83.50;97812.84;6109660;28;20239;-90
2021/12/20 02:41:44;;;;;;;6.10;4.30;;;;;;;0.74;83.40;97829.84;6112059;29;20251;-90
2021/12/20 02:45:09;;;;;;;4.03;3.60;;;;;;;0.63;84.51;97819.03;6113017;29;20227;-89
2021/12/20 02:48:11;;;;;;;5.97;4.43;;;;;;;0.58;84.15;97831.34;6109662;28;20242;-89
2021/12/20 02:51:13;;;;;;;5.73;3.63;;;;;;;0.54;84.61;97821.97;6124940;28;20267;-89
2021/12/20 02:54:17;;;;;;;6.10;4.40;;;;;;;0.55;85.35;97828.03;6110004;28;20726;-90
2021/12/20 02:57:20;;;;;;;6.23;4.43;;;;;;;0.54;85.45;97824.56;6090403;29;20216;-89
2021/12/20 03:00:22;;;;;;;5.10;4.17;;;;;;;0.51;85.25;97835.06;6104925;28;20227;-89
2021/12/20 03:03:26;;;;;;;5.53;4.43;;;;;;;0.50;85.63;97850.72;6110972;28;20227;-90
2021/12/20 03:06:34;;;;;;;5.03;3.90;;;;;;;0.49;85.48;97846.44;6096615;28;20592;-89
2021/12/20 03:09:42;;;;;;;4.60;3.23;;;;;;;0.44;86.00;97856.13;6099583;29;20260;-90
2021/12/20 03:12:45;;;;;;;2.67;1.87;;;;;;;0.40;86.72;97867.53;6085057;29;20291;-90
2021/12/20 03:15:48;;;;;;;2.07;1.57;;;;;;;0.39;86.85;97858.06;6090232;29;20247;-90
2021/12/20 03:18:50;;;;;;;1.50;1.27;;;;;;;0.32;86.93;97855.69;6109784;28;20720;-90
2021/12/20 03:21:54;;;;;;;1.37;1.20;;;;;;;0.35;87.00;97857.31;6109778;28;20646;-90
2021/12/20 03:24:56;;;;;;;1.83;1.00;;;;;;;0.34;86.56;97868.59;6108338;28;20645;-90
2021/12/20 03:27:58;;;;;;;1.33;0.80;;;;;;;0.33;86.72;97856.53;6108601;28;20370;-90
2021/12/20 03:31:00;;;;;;;1.60;1.10;;;;;;;0.34;86.89;97845.25;6109823;28;20243;-90
2021/12/20 03:34:03;;;;;;;0.80;0.80;;;;;;;0.35;87.08;97846.94;6097566;29;20704;-89
2021/12/20 03:37:05;;;;;;;1.57;1.13;;;;;;;0.38;86.98;97861.56;6109544;28;20235;-88
2021/12/20 03:40:08;;;;;;;0.90;0.73;;;;;;;0.39;87.08;97873.63;6108652;28;20234;-89
2021/12/20 03:43:12;;;;;;;1.43;1.03;;;;;;;0.43;87.10;97862.22;6107284;28;20238;-89
2021/12/20 03:46:14;;;;;;;3.73;1.70;;;;;;;0.46;87.01;97868.16;6085414;29;20232;-89
2021/12/20 03:49:16;;;;;;;2.67;1.53;;;;;;;0.51;86.37;97874.00;6087101;29;20720;-89
2021/12/20 03:52:18;;;;;;;2.70;2.20;;;;;;;0.59;86.89;97879.78;6090598;28;20703;-90
2021/12/20 03:55:20;;;;;;;2.93;1.90;;;;;;;0.70;86.12;97879.34;6108931;28;20239;-89
2021/12/20 03:58:25;;;;;;;2.23;1.73;;;;;;;0.74;85.19;97867.97;6108013;28;20246;-89
2021/12/20 04:01:28;;;;;;;3.40;1.70;;;;;;;0.80;85.39;97877.28;6094903;29;20268;-89
2021/12/20 04:04:30;;;;;;;2.13;1.53;;;;;;;0.85;84.88;97864.97;6087260;29;20227;-89
2021/12/20 04:07:32;;;;;;;1.50;1.30;;;;;;;0.89;84.88;97882.13;6107772;28;20227;-90
2021/12/20 04:10:36;;;;;;;1.67;1.27;;;;;;;0.91;85.07;97870.75;6118507;28;20239;-90
2021/12/20 04:13:38;;;;;;;2.70;1.60;;;;;;;0.91;84.85;97868.16;6108571;28;20271;-89
2021/12/20 04:16:40;;;;;;;2.27;1.33;;;;;;;0.90;85.15;97876.84;6107855;28;20262;-89
2021/12/20 04:19:42;;;;;;;1.83;1.60;;;;;;;0.88;85.32;97880.44;6107171;28;20243;-89
2021/12/20 04:22:45;;;;;;;3.23;1.73;;;;;;;0.87;85.06;97877.00;6091449;29;20267;-89
2021/12/20 04:25:47;;;;;;;2.97;2.07;;;;;;;0.86;85.31;97882.25;6112817;28;20617;-89
2021/12/20 04:28:49;;;;;;;2.70;1.80;;;;;;;0.84;85.45;97887.47;6108638;28;20782;-89
2021/12/20 04:31:51;;;;;;;3.07;2.07;;;;;;;0.84;84.87;97881.44;6107416;28;20249;-89
2021/12/20 04:34:53;;;;;;;2.30;2.00;;;;;;;0.86;84.77;97890.03;6099725;28;20715;-89
2021/12/20 04:37:58;;;;;;;2.80;2.10;;;;;;;0.87;84.61;97897.78;6107403;28;20233;-89
2021/12/20 04:41:00;;;;;;;2.50;2.27;;;;;;;0.87;84.62;97883.94;6111451;28;20375;-89
2021/12/20 04:44:03;;;;;;;4.37;2.13;;;;;;;0.84;84.53;97894.44;6112767;28;20238;-90
2021/12/20 04:47:05;;;;;;;4.07;1.93;;;;;;;0.84;84.58;97897.03;6112715;28;20230;-89
2021/12/20 04:50:09;;;;;;;2.73;1.87;;;;;;;0.82;84.59;97898.84;6111674;28;20242;-89
2021/12/20 04:53:11;;;;;;;2.50;1.67;;;;;;;0.78;84.50;97910.25;6112703;28;20322;-89
2021/12/20 04:56:13;;;;;;;3.07;1.70;;;;;;;0.76;84.81;97894.72;6112032;28;20261;-89
2021/12/20 04:59:15;;;;;;;3.27;2.20;;;;;;;0.76;84.25;97888.69;6111844;28;20281;-89
2021/12/20 05:02:17;;;;;;;3.57;1.90;;;;;;;0.72;84.70;97895.75;6094637;29;20725;-90
2021/12/20 05:05:21;;;;;;;2.77;2.10;;;;;;;0.70;84.96;97895.78;6103740;29;20243;-90
2021/12/20 05:08:23;;;;;;;3.57;1.83;;;;;;;0.67;84.53;97902.88;6088519;29;20716;-90
2021/12/20 05:11:28;;;;;;;3.43;2.03;;;;;;;0.64;85.08;97898.63;6124142;28;20243;-90
2021/12/20 05:14:30;;;;;;;4.53;1.83;;;;;;;0.57;85.05;97901.50;6094300;29;20235;-90
2021/12/20 05:17:32;;;;;;;3.73;1.80;;;;;;;0.54;85.29;97904.22;6118759;28;20250;-90
2021/12/20 05:20:35;;;;;;;4.10;2.10;;;;;;;0.59;84.56;97912.69;6100862;29;20231;-89
2021/12/20 05:23:37;;;;;;;2.40;1.67;;;;;;;0.61;84.64;97919.50;6096700;28;20238;-90
2021/12/20 05:26:39;;;;;;;1.90;1.60;;;;;;;0.63;84.99;97917.72;6111343;28;20238;-89
2021/12/20 05:29:41;;;;;;;3.07;1.53;;;;;;;0.59;85.01;97926.53;6111398;28;20487;-89
2021/12/20 05:32:43;;;;;;;6.07;2.20;;;;;;;0.56;85.04;97915.41;6112565;28;20231;-89
2021/12/20 05:35:45;;;;;;;3.07;1.67;;;;;;;0.55;84.88;97930.13;6090420;29;20278;-89
2021/12/20 05:38:48;;;;;;;2.27;1.70;;;;;;;0.56;85.00;97933.56;6087625;29;20603;-90
2021/12/20 05:41:50;;;;;;;4.37;1.70;;;;;;;0.57;85.00;97930.94;6119179;28;20239;-89
2021/12/20 05:44:52;;;;;;;4.40;2.70;;;;;;;0.57;84.32;97941.31;6127882;28;20239;-89
2021/12/20 05:47:54;;;;;;;2.27;1.50;;;;;;;0.59;84.94;97952.50;6108386;28;20282;-89
2021/12/20 05:50:57;;;;;;;3.00;1.60;;;;;;;0.53;84.62;97952.69;6111064;28;20369;-90
2021/12/20 05:53:59;;;;;;;2.70;1.53;;;;;;;0.49;84.98;97950.28;6110364;28;20322;-89
2021/12/20 05:57:01;;;;;;;7.23;1.83;;;;;;;0.48;84.35;97948.59;6110254;28;20250;-89
2021/12/20 06:00:12;;;;;;;2.73;1.70;;;;;;;0.48;84.94;97958.97;6111410;28;20227;-89
2021/12/20 06:03:26;;;;;;;2.23;1.70;;;;;;;0.45;85.15;97972.91;6109996;28;20699;-90
2021/12/20 06:06:31;;;;;;;4.37;1.90;;;;;;;0.44;85.31;97972.94;6090742;28;20238;-90
2021/12/20 06:09:33;;;;;;;2.63;1.80;;;;;;;0.50;84.76;97975.34;6092893;29;20310;-89
2021/12/20 06:12:35;;;;;;;4.50;1.87;;;;;;;0.46;85.08;97987.59;6100218;28;20226;-89
2021/12/20 06:15:38;;;;;;;2.60;1.80;;;;;;;0.46;85.21;97977.19;6110591;28;20254;-89
2021/12/20 06:18:40;;;;;;;3.10;2.03;;;;;;;0.50;84.35;97976.16;6101581;28;20730;-88
2021/12/20 06:21:42;;;;;;;4.33;2.30;;;;;;;0.49;84.43;97991.81;6109631;29;20711;-89
2021/12/20 06:24:44;;;;;;;4.07;2.20;;;;;;;0.54;84.63;97984.72;6110285;28;20231;-89
2021/12/20 06:27:47;;;;;;;5.03;2.17;;;;;;;0.57;84.61;97993.25;6091667;29;20243;-89
2021/12/20 06:30:49;;;;;;;2.63;2.07;;;;;;;0.56;84.51;97994.16;6102576;29;20235;-88
2021/12/20 06:33:51;;;;;;;4.90;2.13;;;;;;;0.50;84.69;98006.50;6101747;29;20239;-89
2021/12/20 06:36:53;;;;;;;5.43;2.40;;;;;;;0.47;85.04;98009.19;6102440;28;20261;-89
2021/12/20 06:39:55;;;;;;;3.77;2.53;;;;;;;0.42;84.87;98009.34;6098263;29;20238;-89
2021/12/20 06:42:57;;;;;;;5.60;2.97;;;;;;;0.38;85.54;98014.72;6095288;28;20227;-89
2021/12/20 06:45:59;;;;;;;6.37;2.90;;;;;;;0.45;83.93;98013.59;6102634;28;20234;-90
2021/12/20 06:49:01;;;;;;;5.10;3.07;;;;;;;0.50;83.93;98012.50;6104649;28;20708;-89
2021/12/20 06:52:04;;;;;;;3.47;2.40;;;;;;;0.59;82.16;98032.16;6109548;28;20268;-89
2021/12/20 06:55:07;;;;;;;4.43;2.10;;;;;;;0.56;81.40;98027.91;6088134;29;20263;-89
2021/12/20 06:58:09;;;;;;;4.00;2.40;;;;;;;0.60;81.16;98031.25;6107612;28;20254;-89
2021/12/20 07:01:11;;;;;;;4.30;1.93;;;;;;;0.58;81.60;98040.84;6091422;29;20240;-89
2021/12/20 07:04:14;;;;;;;4.47;2.20;;;;;;;0.55;80.80;98026.19;6110521;28;20238;-88
2021/12/20 07:07:16;;;;;;;4.07;1.73;;;;;;;0.47;81.06;98028.22;6096826;28;20235;-91
2021/12/20 07:10:18;;;;;;;4.80;1.70;;;;;;;0.42;81.14;98024.91;6103272;29;20722;-90
2021/12/20 07:13:21;;;;;;;4.47;1.67;;;;;;;0.37;80.72;98039.81;6086157;29;20595;-88
2021/12/20 07:16:24;;;;;;;5.30;1.70;;;;;;;0.38;80.76;98031.13;6069946;29;20237;-88
2021/12/20 07:19:26;;;;;;;2.00;1.37;;;;;;;0.39;79.78;98031.97;6101087;29;20239;-89
2021/12/20 07:22:28;;;;;;;3.20;1.97;;;;;;;0.34;80.03;98034.72;6107240;28;20239;-89
2021/12/20 07:25:30;;;;;;;3.40;1.90;;;;;;;0.33;79.90;98027.84;6108466;28;20234;-89
2021/12/20 07:28:32;;;;;;;6.23;1.90;;;;;;;0.38;78.75;98046.72;6125335;28;20290;-89
2021/12/20 07:31:35;;;;;;;4.10;1.50;;;;;;;0.36;79.23;98032.94;6108679;28;20235;-89
2021/12/20 07:34:37;;;;;;;2.63;1.60;;;;;;;0.35;79.77;98044.22;6110212;28;20313;-91
2021/12/20 07:37:39;;;;;;;3.03;1.50;;;;;;;0.32;79.79;98058.13;6110177;28;20324;-89
2021/12/20 07:40:46;;;;;;;3.90;1.83;;;;;;;0.35;79.64;98045.06;6108782;28;20262;-89
2021/12/20 07:43:49;;;;;;;3.23;1.90;;;;;;;0.39;79.89;98039.78;6107597;28;20251;-89
2021/12/20 07:46:51;;;;;;;3.43;1.77;;;;;;;0.41;79.43;98041.41;6084552;29;20255;-89
2021/12/20 07:49:53;;;;;;;3.87;1.83;;;;;;;0.38;79.84;98043.25;6105236;28;20273;-90
2021/12/20 07:52:55;;;;;;;3.37;1.93;;;;;;;0.42;79.56;98050.03;6107703;28;20587;-89
2021/12/20 07:55:59;;;;;;;3.63;2.23;;;;;;;0.44;78.79;98036.09;6107851;28;20703;-89
2021/12/20 07:59:01;;;;;;;5.57;2.13;;;;;;;0.50;78.41;98043.66;6107713;28;20231;-89
2021/12/20 08:02:04;;;;;;;4.30;2.03;;;;;;;0.46;79.01;98034.31;6107409;28;20695;-90
2021/12/20 08:05:06;;;;;;;5.37;2.10;;;;;;;0.42;78.99;98031.84;6095046;29;20900;-89
2021/12/20 08:08:08;;;;;;;4.80;1.93;;;;;;;0.45;78.38;98045.59;6102352;28;20230;-90
2021/12/20 08:11:10;;;;;;;8.87;2.70;;;;;;;0.44;78.54;98046.50;6117935;28;20293;-91
2021/12/20 08:14:12;;;;;;;2.93;1.70;;;;;;;0.47;77.88;98035.16;6144701;28;20781;-89
2021/12/20 08:17:14;;;;;;;3.70;1.70;;;;;;;0.51;77.25;98047.13;6131886;28;20317;-89
2021/12/20 08:20:17;;;;;;;3.03;1.80;;;;;;;0.54;77.72;98050.47;6131264;28;20305;-91
2021/12/20 08:23:20;;;;;;;4.00;1.50;;;;;;;0.56;77.62;98048.69;6130375;28;20313;-90
2021/12/20 08:26:22;;;;;;;2.43;1.67;;;;;;;0.57;77.36;98054.72;6131266;28;20258;-89
2021/12/20 08:29:24;;;;;;;4.57;1.67;;;;;;;0.56;77.84;98048.69;6131228;28;20320;-89
2021/12/20 08:32:26;;;;;;;4.13;1.57;;;;;;;0.60;76.49;98054.63;6128550;28;20309;-90
2021/12/20 08:35:28;;;;;;;3.33;1.47;;;;;;;0.65;76.49;98061.34;6107817;28;20235;-90
2021/12/20 08:38:31;;;;;;;3.03;1.70;;;;;;;0.67;75.70;98069.09;6145064;28;20240;-89
2021/12/20 08:41:35;;;;;;;4.93;1.70;;;;;;;0.70;75.87;98064.59;6111288;28;20289;-89
2021/12/20 08:44:37;;;;;;;3.73;1.70;;;;;;;0.71;75.13;98060.25;6123687;28;20234;-90
2021/12/20 08:47:40;;;;;;;3.67;1.50;;;;;;;0.74;75.69;98074.00;6121757;28;20258;-89
2021/12/20 08:50:42;;;;;;;5.47;1.80;;;;;;;0.77;75.04;98086.03;6133053;28;20329;-90
2021/12/20 08:53:49;;;;;;;4.27;1.50;;;;;;;0.79;74.81;98080.81;6130432;28;20342;-90
2021/12/20 08:56:51;;;;;;;4.27;1.80;;;;;;;0.88;74.23;98077.88;6135632;28;20314;-88
2021/12/20 08:59:53;;;;;;;2.43;1.50;;;;;;;0.98;73.60;98079.25;6130185;28;20416;-89
2021/12/20 09:02:57;;;;;;;2.57;1.37;;;;;;;1.02;73.95;98080.81;6108016;28;20274;-89
2021/12/20 09:06:00;;;;;;;2.50;1.30;;;;;;;1.11;73.26;98096.94;6106532;28;20732;-90
2021/12/20 09:09:02;;;;;;;3.80;1.37;;;;;;;1.24;72.72;98088.69;6117515;28;20718;-89
2021/12/20 09:12:06;;;;;;;2.00;1.30;;;;;;;1.36;72.36;98099.50;6126283;28;20274;-90
2021/12/20 09:15:16;;;;;;;3.53;1.33;;;;;;;1.39;72.10;98102.00;6117456;28;20225;-89
2021/12/20 09:18:19;;;;;;;7.13;1.50;;;;;;;1.40;72.71;98106.25;6101023;28;20766;-89
2021/12/20 09:21:25;;;;;;;2.60;1.20;;;;;;;1.59;72.03;98109.06;6128070;28;20231;-90
2021/12/20 09:24:27;;;;;;;2.87;1.10;;;;;;;1.74;71.82;98102.41;6122189;28;20285;-89
2021/12/20 09:27:29;;;;;;;6.87;1.33;;;;;;;1.80;71.71;98115.16;6095109;28;20223;-89
2021/12/20 09:30:31;;;;;;;4.90;1.20;;;;;;;1.83;69.43;98117.66;6109569;28;20231;-90
2021/12/20 09:33:35;;;;;;;2.90;1.17;;;;;;;1.90;69.72;98103.50;6111030;28;20219;-90
2021/12/20 09:36:40;;;;;;;3.33;1.37;;;;;;;1.98;68.78;98113.63;6105229;28;20250;-90
2021/12/20 09:39:42;;;;;;;4.57;1.27;;;;;;;2.05;68.54;98115.94;6104741;28;20317;-90
2021/12/20 09:42:51;;;;;;;4.07;1.33;;;;;;;2.24;67.71;98110.84;6128446;28;20238;-90
2021/12/20 09:45:56;;;;;;;4.93;1.07;;;;;;;2.21;66.87;98111.81;6111198;28;20326;-90
2021/12/20 09:48:59;;;;;;;3.80;1.50;;;;;;;2.26;67.18;98116.84;6111503;28;20242;-90
2021/12/20 09:52:01;;;;;;;3.43;1.60;;;;;;;2.18;64.88;98122.34;6105127;29;20787;-89
2021/12/20 09:55:04;;;;;;;3.93;1.00;;;;;;;2.32;66.50;98115.72;6090288;29;20236;-89
2021/12/20 09:58:06;;;;;;;2.53;1.10;;;;;;;2.38;66.30;98112.91;6111415;28;20234;-89
2021/12/20 10:01:15;;;;;;;1.47;0.97;;;;;;;2.44;65.43;98107.44;6111280;28;20715;-90
2021/12/20 10:04:22;;;;;;;3.97;1.07;;;;;;;2.30;66.94;98101.91;6104126;29;20247;-90
2021/12/20 10:07:26;;;;;;;5.07;1.37;;;;;;;2.35;66.64;98097.38;6120916;28;20586;-89
2021/12/20 10:10:45;;;;;;;2.07;1.20;;;;;;;2.34;67.11;98096.53;6103094;29;20255;-89
2021/12/20 10:13:47;;;;;;;5.50;1.43;;;;;;;2.18;66.90;98098.06;6115891;28;20235;-89
2021/12/20 10:17:03;;;;;;;3.90;1.50;;;;;;;2.28;66.98;98095.94;6110452;28;20237;-89
2021/12/20 10:20:13;;;;;;;2.17;1.10;;;;;;;2.31;67.41;98109.66;6100876;29;20292;-89
2021/12/20 10:23:23;;;;;;;4.93;1.63;;;;;;;2.36;66.07;98102.53;6108174;28;20236;-89
2021/12/20 10:26:25;;;;;;;4.50;1.23;;;;;;;2.41;67.25;98094.50;6126147;28;20227;-90
2021/12/20 10:29:28;;;;;;;3.27;1.20;;;;;;;2.44;66.87;98102.22;6125971;28;20243;-89
2021/12/20 10:32:43;;;;;;;3.07;1.37;;;;;;;2.28;67.04;98093.34;6110048;28;20835;-89
2021/12/20 10:35:52;;;;;;;3.03;1.07;;;;;;;2.41;67.60;98110.16;6091868;29;20232;-90
2021/12/20 10:38:57;;;;;;;4.60;1.33;;;;;;;2.54;66.53;98095.72;6127420;28;20377;-90
2021/12/20 10:42:28;;;;;;;2.27;1.30;;;;;;;2.60;66.54;98095.44;6109772;28;20258;-89
2021/12/20 10:45:31;;;;;;;3.20;1.40;;;;;;;2.65;66.76;98084.84;6113879;28;20228;-90
2021/12/20 10:48:33;;;;;;;6.03;1.40;;;;;;;2.69;66.04;98096.84;6126127;28;20219;-89
2021/12/20 10:51:44;;;;;;;3.70;1.23;;;;;;;2.74;66.77;98097.50;6132475;28;20246;-90
2021/12/20 10:54:47;;;;;;;2.83;1.23;;;;;;;2.66;66.47;98092.59;6133254;28;20240;-90
2021/12/20 10:57:49;;;;;;;5.07;1.63;;;;;;;2.65;66.85;98087.44;6131498;28;20668;-89
2021/12/20 11:01:19;;;;;;;3.80;1.77;;;;;;;2.67;66.04;98086.47;6134828;28;20226;-89
2021/12/20 11:04:25;;;;;;;2.60;1.20;;;;;;;2.69;64.72;98082.06;6131043;28;20224;-89
2021/12/20 11:10:31;;;;;;;3.67;1.40;;;;;;;2.93;65.75;98075.78;6109273;29;20277;-89
2021/12/20 11:13:40;;;;;;;3.20;1.57;;;;;;;3.01;64.65;98079.81;6132950;28;20321;-90
2021/12/20 11:16:51;;;;;;;1.73;1.13;;;;;;;3.07;64.59;98074.34;6133099;28;20231;-89
2021/12/20 11:19:55;;;;;;;2.20;1.67;;;;;;;3.13;63.08;98087.09;6132252;28;20376;-89
2021/12/20 11:23:03;;;;;;;3.80;1.13;;;;;;;3.36;62.45;98081.72;6131569;28;20250;-91
2021/12/20 11:26:05;;;;;;;2.13;1.20;;;;;;;3.42;61.75;98075.38;6132439;28;20269;-89
2021/12/20 11:29:09;;;;;;;2.27;1.23;;;;;;;3.39;61.48;98076.38;6131547;28;20223;-89
2021/12/20 11:32:12;;;;;;;3.63;1.37;;;;;;;3.38;60.05;98073.81;6131385;28;20237;-89
2021/12/20 11:35:17;;;;;;;1.83;1.07;;;;;;;3.29;61.47;98085.53;6120575;28;20230;-90
2021/12/20 11:38:19;;;;;;;2.40;0.97;;;;;;;3.12;60.92;98083.66;6131479;28;20591;-89
2021/12/20 11:41:21;;;;;;;2.77;1.00;;;;;;;3.19;61.77;98076.41;6098085;28;20220;-90
2021/12/20 11:44:29;;;;;;;4.90;1.40;;;;;;;3.39;61.76;98080.75;6092181;28;20716;-89
2021/12/20 11:47:37;;;;;;;4.10;1.50;;;;;;;3.41;60.72;98079.72;6111633;29;20234;-89
2021/12/20 11:50:43;;;;;;;1.60;0.90;;;;;;;3.48;61.69;98073.34;6112038;28;20235;-89
2021/12/20 11:53:47;;;;;;;3.43;1.37;;;;;;;3.80;60.67;98066.59;6132270;28;20610;-89
2021/12/20 11:56:49;;;;;;;6.37;1.20;;;;;;;3.89;60.16;98068.81;6131969;28;20232;-90
2021/12/20 11:59:53;;;;;;;6.53;1.07;;;;;;;3.72;60.02;98053.94;6131230;28;20236;-89
2021/12/20 12:02:59;;;;;;;1.97;1.17;;;;;;;3.59;60.95;98071.06;6130843;28;20318;-89
2021/12/20 12:06:10;;;;;;;2.07;1.03;;;;;;;3.47;60.35;98079.47;6115471;28;20279;-90
2021/12/20 12:09:12;;;;;;;4.43;1.47;;;;;;;3.09;61.87;98075.13;6131717;28;20232;-90
2021/12/20 12:12:33;;;;;;;3.60;1.13;;;;;;;2.91;62.18;98079.34;6119420;28;20710;-89
2021/12/20 12:16:29;;;;;;;3.53;1.20;;;;;;;2.89;62.63;98081.22;6045922;29;20228;-89
2021/12/20 12:19:35;;;;;;;3.90;1.20;;;;;;;2.94;63.25;98084.44;6041445;29;20247;-89
2021/12/20 12:22:41;;;;;;;2.30;1.23;;;;;;;2.97;63.12;98092.16;6085511;29;20405;-89
2021/12/20 12:26:00;;;;;;;3.07;1.10;;;;;;;2.96;63.64;98078.25;6122362;28;20243;-89
2021/12/20 12:29:05;;;;;;;5.90;1.10;;;;;;;2.95;64.33;98084.38;6086593;29;20709;-89
2021/12/20 12:32:08;;;;;;;1.87;1.03;;;;;;;3.15;64.16;98080.91;6116933;28;20240;-89
2021/12/20 12:35:49;;;;;;;1.57;1.03;;;;;;;3.41;62.96;98082.34;6107757;28;20237;-89
2021/12/20 12:38:55;;;;;;;4.97;1.40;;;;;;;3.70;60.41;98084.47;6107684;28;20704;-89
2021/12/20 12:42:01;;;;;;;3.33;1.10;;;;;;;3.52;59.55;98092.28;6093967;29;20293;-89
2021/12/20 12:45:03;;;;;;;3.73;1.00;;;;;;;3.58;60.91;98086.81;6118068;28;20233;-89
2021/12/20 12:48:34;;;;;;;1.90;1.20;;;;;;;3.51;59.75;98086.22;6115005;28;20223;-90
2021/12/20 12:51:40;;;;;;;1.60;0.90;;;;;;;3.11;60.12;98087.16;6129347;28;20253;-89
2021/12/20 12:54:51;;;;;;;1.80;1.23;;;;;;;3.06;61.08;98085.69;6130281;28;20243;-89
2021/12/20 12:57:55;;;;;;;2.10;1.23;;;;;;;2.88;60.66;98085.56;6113504;28;20236;-89
2021/12/20 13:00:59;;;;;;;1.93;0.87;;;;;;;2.67;61.97;98088.25;6125793;28;20261;-89
2021/12/20 13:04:01;;;;;;;2.07;1.30;;;;;;;2.62;62.33;98087.56;6111275;28;20617;-90
2021/12/20 13:07:04;;;;;;;2.63;1.17;;;;;;;2.53;62.77;98089.66;6149829;28;20246;-88
2021/12/20 13:10:21;;;;;;;3.70;1.07;;;;;;;2.43;63.58;98093.56;6130722;28;20234;-90
2021/12/20 13:13:27;;;;;;;1.70;1.30;;;;;;;2.25;63.58;98096.06;6127611;28;20239;-90
2021/12/20 13:16:30;;;;;;;1.90;1.20;;;;;;;2.33;63.41;98092.22;6136450;28;20230;-89
2021/12/20 13:19:34;;;;;;;3.00;1.30;;;;;;;2.33;62.74;98089.63;6118305;28;20269;-89
2021/12/20 13:22:36;;;;;;;2.07;1.27;;;;;;;2.23;63.39;98096.13;6119528;28;20612;-89
2021/12/20 13:25:48;;;;;;;4.03;1.27;;;;;;;2.18;62.55;98098.06;6113546;28;20706;-91
2021/12/20 13:28:54;;;;;;;3.13;1.10;;;;;;;2.19;63.66;98100.63;6132733;28;20290;-89
2021/12/20 13:32:09;;;;;;;1.10;1.00;;;;;;;2.18;63.42;98103.28;6111243;28;20235;-89
2021/12/20 13:35:19;;;;;;;4.53;1.33;;;;;;;2.17;63.67;98110.25;6105190;28;20235;-88
2021/12/20 13:38:26;;;;;;;2.87;1.30;;;;;;;2.09;62.83;98101.03;6087510;29;20310;-88
2021/12/20 13:41:31;;;;;;;3.97;1.40;;;;;;;2.11;63.83;98101.81;6144498;28;20222;-88
2021/12/20 13:44:34;;;;;;;1.60;1.13;;;;;;;2.11;64.16;98105.25;6134681;28;20237;-88
2021/12/20 13:47:40;;;;;;;4.33;1.50;;;;;;;2.02;64.18;98108.22;6134259;28;20254;-89
2021/12/20 13:50:42;;;;;;;3.93;1.27;;;;;;;1.99;63.82;98116.19;6129107;28;20237;-89
2021/12/20 13:53:44;;;;;;;2.20;1.50;;;;;;;1.94;63.64;98114.66;6101892;29;20708;-89
2021/12/20 13:56:53;;;;;;;2.67;1.40;;;;;;;1.82;64.26;98124.63;6114008;28;20231;-89
2021/12/20 14:00:03;;;;;;;1.60;1.10;;;;;;;1.66;62.64;98114.88;6131247;28;20239;-89
2021/12/20 14:03:13;;;;;;;2.53;1.30;;;;;;;1.59;63.30;98129.84;6113630;28;20218;-89
2021/12/20 14:06:40;;;;;;;2.60;1.30;;;;;;;1.58;64.92;98129.91;6096703;28;20259;-88
2021/12/20 14:09:59;;;;;;;1.70;0.90;;;;;;;1.52;62.45;98140.53;6110414;28;20699;-88
2021/12/20 14:13:06;;;;;;;3.17;1.17;;;;;;;1.51;63.57;98144.03;6102276;29;20701;-89
2021/12/20 14:16:08;;;;;;;2.20;0.90;;;;;;;1.42;60.54;98142.63;6124568;28;20263;-88
2021/12/20 14:19:10;;;;;;;3.33;0.70;;;;;;;1.33;62.31;98145.53;6094039;28;20712;-89
2021/12/20 14:22:12;;;;;;;1.40;0.90;;;;;;;1.27;62.42;98157.03;6109510;28;20794;-88
2021/12/20 14:25:14;;;;;;;1.23;0.70;;;;;;;1.25;60.62;98156.22;6115656;28;20778;-89
2021/12/20 14:28:21;;;;;;;3.07;0.80;;;;;;;1.26;62.54;98173.53;6103906;28;20238;-88
2021/12/20 14:31:34;;;;;;;2.13;1.20;;;;;;;1.23;62.60;98167.56;6133582;28;20397;-89
2021/12/20 14:34:36;;;;;;;1.43;0.90;;;;;;;1.18;61.65;98167.75;6130720;28;20733;-89
2021/12/20 14:37:38;;;;;;;1.90;0.93;;;;;;;1.18;62.72;98162.56;6133880;28;20813;-89
2021/12/20 14:40:48;;;;;;;1.20;1.10;;;;;;;1.16;62.02;98166.94;6133581;28;20789;-88
2021/12/20 14:43:51;;;;;;;3.57;1.10;;;;;;;1.10;63.16;98177.53;6133136;28;20645;-88
2021/12/20 14:47:13;;;;;;;5.77;1.20;;;;;;;1.06;62.77;98181.16;6111825;28;20638;-89
2021/12/20 14:50:26;;;;;;;2.27;1.20;;;;;;;1.02;64.16;98184.75;6135003;28;20317;-88
2021/12/20 14:53:28;;;;;;;2.67;1.20;;;;;;;0.91;64.16;98186.88;6116998;28;20313;-89
2021/12/20 14:56:31;;;;;;;4.07;1.40;;;;;;;0.93;64.12;98188.53;6110760;28;20319;-89